Terminal Aerodrome Forecast
Issued by NWS

Home | Current Version | Previous Version | Graphics & Text | Print | Product List | Glossary On
Versions: 1 2 3 4 5 6 7 8 9 10 11 12 13 14 15 16 17 18
000
FTUS43 KIWX 190135 AAA
TAFSBN
TAF AMD
KSBN 190135Z 1902/1924 22007KT P6SM OVC011
     FM191700 17005KT P6SM OVC025
     FM191900 16006KT P6SM BKN120
     FM192300 11006KT P6SM BKN140=

USA.gov is the U.S. government's official web portal to all federal, state and local government web resources and services.